sensor_id;sensor_type;location;lat;lon;timestamp;P1;durP1;ratioP1;P2;durP2;ratioP2
48751;SDS011;34544;48.836;9.174;2023-04-07T00:02:16;11.40;;;8.10;;
48751;SDS011;34544;48.836;9.174;2023-04-07T00:04:42;16.80;;;8.73;;
48751;SDS011;34544;48.836;9.174;2023-04-07T00:07:07;10.32;;;8.70;;
48751;SDS011;34544;48.836;9.174;2023-04-07T00:09:33;13.55;;;9.73;;
48751;SDS011;34544;48.836;9.174;2023-04-07T00:11:59;11.63;;;7.70;;
48751;SDS011;34544;48.836;9.174;2023-04-07T00:14:28;9.50;;;7.45;;
48751;SDS011;34544;48.836;9.174;2023-04-07T00:16:53;10.98;;;7.72;;
48751;SDS011;34544;48.836;9.174;2023-04-07T00:19:19;10.82;;;8.52;;
48751;SDS011;34544;48.836;9.174;2023-04-07T00:21:45;11.82;;;7.85;;
48751;SDS011;34544;48.836;9.174;2023-04-07T00:24:10;11.52;;;7.80;;
48751;SDS011;34544;48.836;9.174;2023-04-07T00:26:36;12.18;;;7.82;;
48751;SDS011;34544;48.836;9.174;2023-04-07T00:29:02;11.98;;;8.07;;
48751;SDS011;34544;48.836;9.174;2023-04-07T00:31:28;11.65;;;6.95;;
48751;SDS011;34544;48.836;9.174;2023-04-07T00:33:54;9.38;;;7.75;;
48751;SDS011;34544;48.836;9.174;2023-04-07T00:36:21;10.65;;;8.40;;
48751;SDS011;34544;48.836;9.174;2023-04-07T00:38:47;11.45;;;8.15;;
48751;SDS011;34544;48.836;9.174;2023-04-07T00:41:13;11.55;;;8.23;;
48751;SDS011;34544;48.836;9.174;2023-04-07T00:43:39;10.20;;;7.57;;
48751;SDS011;34544;48.836;9.174;2023-04-07T00:46:04;15.00;;;8.25;;
48751;SDS011;34544;48.836;9.174;2023-04-07T00:48:30;10.50;;;7.65;;
48751;SDS011;34544;48.836;9.174;2023-04-07T00:50:56;10.52;;;7.43;;
48751;SDS011;34544;48.836;9.174;2023-04-07T00:53:21;10.20;;;7.93;;
48751;SDS011;34544;48.836;9.174;2023-04-07T00:55:47;10.20;;;7.25;;
48751;SDS011;34544;48.836;9.174;2023-04-07T00:58:13;8.23;;;6.32;;
48751;SDS011;34544;48.836;9.174;2023-04-07T01:00:53;9.50;;;7.28;;
48751;SDS011;34544;48.836;9.174;2023-04-07T01:03:28;11.73;;;6.70;;
48751;SDS011;34544;48.836;9.174;2023-04-07T01:06:00;10.05;;;6.60;;
48751;SDS011;34544;48.836;9.174;2023-04-07T01:08:32;10.55;;;6.63;;
48751;SDS011;34544;48.836;9.174;2023-04-07T01:11:12;10.23;;;6.95;;
48751;SDS011;34544;48.836;9.174;2023-04-07T01:13:49;7.65;;;6.35;;
48751;SDS011;34544;48.836;9.174;2023-04-07T01:16:45;7.72;;;6.47;;
48751;SDS011;34544;48.836;9.174;2023-04-07T01:22:01;8.70;;;7.18;;
48751;SDS011;34544;48.836;9.174;2023-04-07T01:29:56;10.85;;;7.38;;
48751;SDS011;34544;48.836;9.174;2023-04-07T01:32:25;9.57;;;7.38;;
48751;SDS011;34544;48.836;9.174;2023-04-07T01:34:52;7.43;;;6.32;;
48751;SDS011;34544;48.836;9.174;2023-04-07T01:37:19;14.15;;;7.03;;
48751;SDS011;34544;48.836;9.174;2023-04-07T01:39:46;8.07;;;6.90;;
48751;SDS011;34544;48.836;9.174;2023-04-07T01:42:12;8.88;;;7.50;;
48751;SDS011;34544;48.836;9.174;2023-04-07T01:44:39;9.45;;;7.63;;
48751;SDS011;34544;48.836;9.174;2023-04-07T01:47:06;8.50;;;7.53;;
48751;SDS011;34544;48.836;9.174;2023-04-07T01:49:32;8.63;;;7.10;;
48751;SDS011;34544;48.836;9.174;2023-04-07T01:51:59;8.68;;;6.75;;
48751;SDS011;34544;48.836;9.174;2023-04-07T01:54:26;10.15;;;6.95;;
48751;SDS011;34544;48.836;9.174;2023-04-07T01:56:53;13.75;;;7.40;;
48751;SDS011;34544;48.836;9.174;2023-04-07T01:59:19;9.13;;;6.88;;
48751;SDS011;34544;48.836;9.174;2023-04-07T02:01:46;9.63;;;6.88;;
48751;SDS011;34544;48.836;9.174;2023-04-07T02:04:26;12.38;;;7.53;;
48751;SDS011;34544;48.836;9.174;2023-04-07T02:07:02;14.50;;;7.18;;
48751;SDS011;34544;48.836;9.174;2023-04-07T02:09:40;9.13;;;6.78;;
48751;SDS011;34544;48.836;9.174;2023-04-07T02:12:08;10.73;;;7.70;;
48751;SDS011;34544;48.836;9.174;2023-04-07T02:14:41;8.60;;;6.50;;
48751;SDS011;34544;48.836;9.174;2023-04-07T02:17:11;10.07;;;7.32;;
48751;SDS011;34544;48.836;9.174;2023-04-07T02:19:39;9.80;;;7.65;;
48751;SDS011;34544;48.836;9.174;2023-04-07T02:22:06;9.93;;;7.22;;
48751;SDS011;34544;48.836;9.174;2023-04-07T02:24:33;9.55;;;7.40;;
48751;SDS011;34544;48.836;9.174;2023-04-07T02:26:58;12.93;;;7.88;;
48751;SDS011;34544;48.836;9.174;2023-04-07T02:29:26;10.90;;;7.90;;
48751;SDS011;34544;48.836;9.174;2023-04-07T02:31:51;9.65;;;7.88;;
48751;SDS011;34544;48.836;9.174;2023-04-07T02:34:17;12.10;;;8.60;;
48751;SDS011;34544;48.836;9.174;2023-04-07T02:36:43;12.07;;;7.32;;
48751;SDS011;34544;48.836;9.174;2023-04-07T02:39:08;9.02;;;6.75;;
48751;SDS011;34544;48.836;9.174;2023-04-07T02:41:34;9.90;;;7.32;;
48751;SDS011;34544;48.836;9.174;2023-04-07T02:44:00;9.98;;;7.82;;
48751;SDS011;34544;48.836;9.174;2023-04-07T02:46:26;12.45;;;8.15;;
48751;SDS011;34544;48.836;9.174;2023-04-07T02:48:51;14.43;;;8.40;;
48751;SDS011;34544;48.836;9.174;2023-04-07T02:51:17;10.57;;;7.05;;
48751;SDS011;34544;48.836;9.174;2023-04-07T02:53:43;16.23;;;7.85;;
48751;SDS011;34544;48.836;9.174;2023-04-07T02:56:09;10.20;;;7.32;;
48751;SDS011;34544;48.836;9.174;2023-04-07T02:58:35;9.52;;;7.93;;
48751;SDS011;34544;48.836;9.174;2023-04-07T03:01:01;12.05;;;7.97;;
48751;SDS011;34544;48.836;9.174;2023-04-07T03:03:29;11.82;;;7.78;;
48751;SDS011;34544;48.836;9.174;2023-04-07T03:06:07;8.65;;;7.07;;
48751;SDS011;34544;48.836;9.174;2023-04-07T03:08:37;12.93;;;9.30;;
48751;SDS011;34544;48.836;9.174;2023-04-07T03:11:03;11.57;;;8.85;;
48751;SDS011;34544;48.836;9.174;2023-04-07T03:13:29;12.38;;;8.07;;
48751;SDS011;34544;48.836;9.174;2023-04-07T03:15:56;10.35;;;7.88;;
48751;SDS011;34544;48.836;9.174;2023-04-07T03:18:23;13.48;;;7.95;;
48751;SDS011;34544;48.836;9.174;2023-04-07T03:20:54;12.82;;;8.18;;
48751;SDS011;34544;48.836;9.174;2023-04-07T03:23:20;9.18;;;7.35;;
48751;SDS011;34544;48.836;9.174;2023-04-07T03:25:48;12.27;;;7.55;;
48751;SDS011;34544;48.836;9.174;2023-04-07T03:28:14;11.82;;;8.20;;
48751;SDS011;34544;48.836;9.174;2023-04-07T03:30:41;13.98;;;9.65;;
48751;SDS011;34544;48.836;9.174;2023-04-07T03:33:07;11.15;;;7.80;;
48751;SDS011;34544;48.836;9.174;2023-04-07T03:35:33;10.18;;;7.72;;
48751;SDS011;34544;48.836;9.174;2023-04-07T03:37:59;12.43;;;7.93;;
48751;SDS011;34544;48.836;9.174;2023-04-07T03:40:25;10.93;;;8.13;;
48751;SDS011;34544;48.836;9.174;2023-04-07T03:42:51;16.80;;;8.82;;
48751;SDS011;34544;48.836;9.174;2023-04-07T03:45:16;11.70;;;7.88;;
48751;SDS011;34544;48.836;9.174;2023-04-07T03:47:46;10.52;;;7.63;;
48751;SDS011;34544;48.836;9.174;2023-04-07T03:50:13;10.35;;;7.82;;
48751;SDS011;34544;48.836;9.174;2023-04-07T03:52:48;12.40;;;8.77;;
48751;SDS011;34544;48.836;9.174;2023-04-07T03:55:22;14.23;;;8.98;;
48751;SDS011;34544;48.836;9.174;2023-04-07T03:57:51;11.18;;;8.35;;
48751;SDS011;34544;48.836;9.174;2023-04-07T04:00:17;11.82;;;8.55;;
48751;SDS011;34544;48.836;9.174;2023-04-07T04:02:57;14.48;;;8.13;;
48751;SDS011;34544;48.836;9.174;2023-04-07T04:05:23;11.27;;;8.90;;
48751;SDS011;34544;48.836;9.174;2023-04-07T04:07:49;14.48;;;8.25;;
48751;SDS011;34544;48.836;9.174;2023-04-07T04:10:20;11.05;;;7.75;;
48751;SDS011;34544;48.836;9.174;2023-04-07T04:12:49;10.73;;;8.07;;
48751;SDS011;34544;48.836;9.174;2023-04-07T04:15:14;12.75;;;9.15;;
48751;SDS011;34544;48.836;9.174;2023-04-07T04:17:41;11.60;;;8.55;;
48751;SDS011;34544;48.836;9.174;2023-04-07T04:20:08;12.38;;;8.73;;
48751;SDS011;34544;48.836;9.174;2023-04-07T04:22:42;13.60;;;8.95;;
48751;SDS011;34544;48.836;9.174;2023-04-07T04:25:08;10.73;;;8.82;;
48751;SDS011;34544;48.836;9.174;2023-04-07T04:27:34;12.52;;;8.52;;
48751;SDS011;34544;48.836;9.174;2023-04-07T04:30:09;12.50;;;8.57;;
48751;SDS011;34544;48.836;9.174;2023-04-07T04:32:57;12.02;;;8.52;;
48751;SDS011;34544;48.836;9.174;2023-04-07T04:35:32;10.20;;;7.55;;
48751;SDS011;34544;48.836;9.174;2023-04-07T04:38:13;10.02;;;8.27;;
48751;SDS011;34544;48.836;9.174;2023-04-07T04:40:43;12.05;;;8.48;;
48751;SDS011;34544;48.836;9.174;2023-04-07T04:43:10;11.75;;;8.85;;
48751;SDS011;34544;48.836;9.174;2023-04-07T04:45:38;12.25;;;8.82;;
48751;SDS011;34544;48.836;9.174;2023-04-07T04:48:06;11.45;;;7.97;;
48751;SDS011;34544;48.836;9.174;2023-04-07T04:50:31;12.05;;;8.45;;
48751;SDS011;34544;48.836;9.174;2023-04-07T04:52:58;11.75;;;9.02;;
48751;SDS011;34544;48.836;9.174;2023-04-07T04:55:25;17.08;;;8.48;;
48751;SDS011;34544;48.836;9.174;2023-04-07T04:57:52;16.45;;;9.15;;
48751;SDS011;34544;48.836;9.174;2023-04-07T05:00:26;14.35;;;9.57;;
48751;SDS011;34544;48.836;9.174;2023-04-07T05:02:58;10.65;;;8.55;;
48751;SDS011;34544;48.836;9.174;2023-04-07T05:05:25;11.88;;;9.18;;
48751;SDS011;34544;48.836;9.174;2023-04-07T05:07:53;12.65;;;8.43;;
48751;SDS011;34544;48.836;9.174;2023-04-07T05:10:20;12.82;;;9.48;;
48751;SDS011;34544;48.836;9.174;2023-04-07T05:12:49;14.10;;;9.40;;
48751;SDS011;34544;48.836;9.174;2023-04-07T05:15:15;14.88;;;9.57;;
48751;SDS011;34544;48.836;9.174;2023-04-07T05:17:43;12.85;;;8.93;;
48751;SDS011;34544;48.836;9.174;2023-04-07T05:20:11;12.18;;;8.45;;
48751;SDS011;34544;48.836;9.174;2023-04-07T05:22:39;16.08;;;9.73;;
48751;SDS011;34544;48.836;9.174;2023-04-07T05:25:07;14.15;;;9.10;;
48751;SDS011;34544;48.836;9.174;2023-04-07T05:27:33;14.30;;;9.55;;
48751;SDS011;34544;48.836;9.174;2023-04-07T05:30:04;14.23;;;9.90;;
48751;SDS011;34544;48.836;9.174;2023-04-07T05:32:33;11.80;;;9.02;;
48751;SDS011;34544;48.836;9.174;2023-04-07T05:35:05;12.85;;;9.38;;
48751;SDS011;34544;48.836;9.174;2023-04-07T05:37:34;15.13;;;9.32;;
48751;SDS011;34544;48.836;9.174;2023-04-07T05:40:02;14.70;;;10.75;;
48751;SDS011;34544;48.836;9.174;2023-04-07T05:42:28;15.30;;;10.38;;
48751;SDS011;34544;48.836;9.174;2023-04-07T05:44:56;14.80;;;9.52;;
48751;SDS011;34544;48.836;9.174;2023-04-07T05:47:23;16.02;;;9.40;;
48751;SDS011;34544;48.836;9.174;2023-04-07T05:49:49;12.32;;;9.00;;
48751;SDS011;34544;48.836;9.174;2023-04-07T05:52:15;13.68;;;9.57;;
48751;SDS011;34544;48.836;9.174;2023-04-07T05:54:47;11.65;;;9.43;;
48751;SDS011;34544;48.836;9.174;2023-04-07T05:57:14;13.18;;;8.75;;
48751;SDS011;34544;48.836;9.174;2023-04-07T05:59:43;16.60;;;9.95;;
48751;SDS011;34544;48.836;9.174;2023-04-07T06:02:09;13.30;;;9.90;;
48751;SDS011;34544;48.836;9.174;2023-04-07T06:04:35;13.63;;;10.00;;
48751;SDS011;34544;48.836;9.174;2023-04-07T06:07:03;14.40;;;8.88;;
48751;SDS011;34544;48.836;9.174;2023-04-07T06:09:29;11.85;;;9.02;;
48751;SDS011;34544;48.836;9.174;2023-04-07T06:11:55;13.82;;;8.98;;
48751;SDS011;34544;48.836;9.174;2023-04-07T06:14:21;14.57;;;9.73;;
48751;SDS011;34544;48.836;9.174;2023-04-07T06:16:46;13.57;;;9.07;;
48751;SDS011;34544;48.836;9.174;2023-04-07T06:19:12;14.93;;;10.98;;
48751;SDS011;34544;48.836;9.174;2023-04-07T06:21:38;17.27;;;9.48;;
48751;SDS011;34544;48.836;9.174;2023-04-07T06:24:04;13.82;;;9.80;;
48751;SDS011;34544;48.836;9.174;2023-04-07T06:26:33;17.45;;;8.93;;
48751;SDS011;34544;48.836;9.174;2023-04-07T06:28:59;18.25;;;8.98;;
48751;SDS011;34544;48.836;9.174;2023-04-07T06:31:25;12.02;;;8.07;;
48751;SDS011;34544;48.836;9.174;2023-04-07T06:33:51;13.27;;;8.70;;
48751;SDS011;34544;48.836;9.174;2023-04-07T06:36:17;10.43;;;8.00;;
48751;SDS011;34544;48.836;9.174;2023-04-07T06:38:43;11.40;;;8.75;;
48751;SDS011;34544;48.836;9.174;2023-04-07T06:41:08;17.60;;;9.45;;
48751;SDS011;34544;48.836;9.174;2023-04-07T06:43:40;12.50;;;8.95;;
48751;SDS011;34544;48.836;9.174;2023-04-07T06:46:10;15.10;;;9.40;;
48751;SDS011;34544;48.836;9.174;2023-04-07T06:48:36;15.85;;;10.50;;
48751;SDS011;34544;48.836;9.174;2023-04-07T06:51:02;12.93;;;9.73;;
48751;SDS011;34544;48.836;9.174;2023-04-07T06:53:28;16.60;;;10.27;;
48751;SDS011;34544;48.836;9.174;2023-04-07T06:56:06;12.77;;;9.80;;
48751;SDS011;34544;48.836;9.174;2023-04-07T06:58:33;12.85;;;9.77;;
48751;SDS011;34544;48.836;9.174;2023-04-07T07:01:00;12.70;;;11.00;;
48751;SDS011;34544;48.836;9.174;2023-04-07T07:03:26;12.93;;;10.43;;
48751;SDS011;34544;48.836;9.174;2023-04-07T07:05:56;13.15;;;9.55;;
48751;SDS011;34544;48.836;9.174;2023-04-07T07:08:23;12.73;;;9.77;;
48751;SDS011;34544;48.836;9.174;2023-04-07T07:10:50;11.15;;;8.68;;
48751;SDS011;34544;48.836;9.174;2023-04-07T07:13:17;11.73;;;9.13;;
48751;SDS011;34544;48.836;9.174;2023-04-07T07:15:43;13.52;;;9.10;;
48751;SDS011;34544;48.836;9.174;2023-04-07T07:18:10;14.23;;;9.45;;
48751;SDS011;34544;48.836;9.174;2023-04-07T07:20:36;14.85;;;9.05;;
48751;SDS011;34544;48.836;9.174;2023-04-07T07:23:02;13.90;;;9.15;;
48751;SDS011;34544;48.836;9.174;2023-04-07T07:25:28;11.93;;;9.20;;
48751;SDS011;34544;48.836;9.174;2023-04-07T07:27:53;10.43;;;8.52;;
48751;SDS011;34544;48.836;9.174;2023-04-07T07:30:20;13.80;;;9.68;;
48751;SDS011;34544;48.836;9.174;2023-04-07T07:32:47;12.77;;;9.00;;
48751;SDS011;34544;48.836;9.174;2023-04-07T07:35:13;11.43;;;8.40;;
48751;SDS011;34544;48.836;9.174;2023-04-07T07:37:39;14.90;;;9.70;;
48751;SDS011;34544;48.836;9.174;2023-04-07T07:40:05;13.32;;;9.30;;
48751;SDS011;34544;48.836;9.174;2023-04-07T07:42:31;14.63;;;10.02;;
48751;SDS011;34544;48.836;9.174;2023-04-07T07:44:57;10.50;;;8.35;;
48751;SDS011;34544;48.836;9.174;2023-04-07T07:47:22;12.40;;;8.68;;
48751;SDS011;34544;48.836;9.174;2023-04-07T07:49:48;10.38;;;7.47;;
48751;SDS011;34544;48.836;9.174;2023-04-07T07:52:14;15.52;;;8.77;;
48751;SDS011;34544;48.836;9.174;2023-04-07T07:54:40;9.30;;;7.65;;
48751;SDS011;34544;48.836;9.174;2023-04-07T07:57:06;12.88;;;7.53;;
48751;SDS011;34544;48.836;9.174;2023-04-07T07:59:31;11.65;;;7.32;;
48751;SDS011;34544;48.836;9.174;2023-04-07T08:01:57;11.20;;;8.13;;
48751;SDS011;34544;48.836;9.174;2023-04-07T08:04:23;9.50;;;7.72;;
48751;SDS011;34544;48.836;9.174;2023-04-07T08:06:49;8.65;;;7.00;;
48751;SDS011;34544;48.836;9.174;2023-04-07T08:09:16;8.07;;;6.55;;
48751;SDS011;34544;48.836;9.174;2023-04-07T08:11:43;8.98;;;6.82;;
48751;SDS011;34544;48.836;9.174;2023-04-07T08:14:08;10.60;;;8.00;;
48751;SDS011;34544;48.836;9.174;2023-04-07T08:16:34;9.10;;;6.75;;
48751;SDS011;34544;48.836;9.174;2023-04-07T08:19:00;9.32;;;7.18;;
48751;SDS011;34544;48.836;9.174;2023-04-07T08:21:25;8.68;;;6.68;;
48751;SDS011;34544;48.836;9.174;2023-04-07T08:23:52;9.18;;;7.15;;
48751;SDS011;34544;48.836;9.174;2023-04-07T08:26:18;8.52;;;6.95;;
48751;SDS011;34544;48.836;9.174;2023-04-07T08:28:45;8.50;;;6.15;;
48751;SDS011;34544;48.836;9.174;2023-04-07T08:31:11;9.35;;;5.95;;
48751;SDS011;34544;48.836;9.174;2023-04-07T08:33:37;9.38;;;6.05;;
48751;SDS011;34544;48.836;9.174;2023-04-07T08:36:03;9.15;;;6.25;;
48751;SDS011;34544;48.836;9.174;2023-04-07T08:38:29;11.55;;;6.78;;
48751;SDS011;34544;48.836;9.174;2023-04-07T08:41:09;9.55;;;6.90;;
48751;SDS011;34544;48.836;9.174;2023-04-07T08:43:37;10.80;;;7.10;;
48751;SDS011;34544;48.836;9.174;2023-04-07T08:46:03;7.30;;;5.88;;
48751;SDS011;34544;48.836;9.174;2023-04-07T08:48:30;11.70;;;6.10;;
48751;SDS011;34544;48.836;9.174;2023-04-07T08:50:59;8.10;;;6.15;;
48751;SDS011;34544;48.836;9.174;2023-04-07T08:53:33;6.35;;;5.50;;
48751;SDS011;34544;48.836;9.174;2023-04-07T08:56:15;10.43;;;7.15;;
48751;SDS011;34544;48.836;9.174;2023-04-07T08:58:42;8.13;;;7.30;;
48751;SDS011;34544;48.836;9.174;2023-04-07T09:01:12;12.25;;;6.25;;
48751;SDS011;34544;48.836;9.174;2023-04-07T09:03:38;8.80;;;6.45;;
48751;SDS011;34544;48.836;9.174;2023-04-07T09:06:04;8.07;;;6.47;;
48751;SDS011;34544;48.836;9.174;2023-04-07T09:08:30;9.57;;;5.93;;
48751;SDS011;34544;48.836;9.174;2023-04-07T09:10:56;9.68;;;5.93;;
48751;SDS011;34544;48.836;9.174;2023-04-07T09:13:24;8.65;;;6.00;;
48751;SDS011;34544;48.836;9.174;2023-04-07T09:15:50;10.02;;;6.43;;
48751;SDS011;34544;48.836;9.174;2023-04-07T09:18:16;10.10;;;6.72;;
48751;SDS011;34544;48.836;9.174;2023-04-07T09:20:59;7.35;;;5.40;;
48751;SDS011;34544;48.836;9.174;2023-04-07T09:23:27;8.18;;;5.40;;
48751;SDS011;34544;48.836;9.174;2023-04-07T09:25:56;10.63;;;5.80;;
48751;SDS011;34544;48.836;9.174;2023-04-07T09:28:39;7.40;;;5.28;;
48751;SDS011;34544;48.836;9.174;2023-04-07T09:31:06;8.60;;;5.75;;
48751;SDS011;34544;48.836;9.174;2023-04-07T09:33:32;5.65;;;4.85;;
48751;SDS011;34544;48.836;9.174;2023-04-07T09:35:59;6.85;;;4.88;;
48751;SDS011;34544;48.836;9.174;2023-04-07T09:38:31;6.47;;;4.68;;
48751;SDS011;34544;48.836;9.174;2023-04-07T09:41:04;9.23;;;5.07;;
48751;SDS011;34544;48.836;9.174;2023-04-07T09:43:32;5.30;;;4.80;;
48751;SDS011;34544;48.836;9.174;2023-04-07T09:46:07;5.60;;;4.97;;
48751;SDS011;34544;48.836;9.174;2023-04-07T09:48:36;4.85;;;3.78;;
48751;SDS011;34544;48.836;9.174;2023-04-07T09:51:12;10.25;;;4.90;;
48751;SDS011;34544;48.836;9.174;2023-04-07T09:53:46;11.15;;;4.68;;
48751;SDS011;34544;48.836;9.174;2023-04-07T09:56:14;6.22;;;4.45;;
48751;SDS011;34544;48.836;9.174;2023-04-07T09:58:40;6.40;;;3.97;;
48751;SDS011;34544;48.836;9.174;2023-04-07T10:01:08;7.43;;;3.13;;
48751;SDS011;34544;48.836;9.174;2023-04-07T10:03:35;5.32;;;3.65;;
48751;SDS011;34544;48.836;9.174;2023-04-07T10:06:01;5.18;;;3.78;;
48751;SDS011;34544;48.836;9.174;2023-04-07T10:08:27;8.25;;;4.13;;
48751;SDS011;34544;48.836;9.174;2023-04-07T10:10:55;5.55;;;4.05;;
48751;SDS011;34544;48.836;9.174;2023-04-07T10:13:23;6.32;;;3.85;;
48751;SDS011;34544;48.836;9.174;2023-04-07T10:15:50;7.43;;;5.20;;
48751;SDS011;34544;48.836;9.174;2023-04-07T10:18:16;8.43;;;5.03;;
48751;SDS011;34544;48.836;9.174;2023-04-07T10:20:44;8.18;;;5.07;;
48751;SDS011;34544;48.836;9.174;2023-04-07T10:23:15;5.38;;;4.57;;
48751;SDS011;34544;48.836;9.174;2023-04-07T10:25:46;8.48;;;4.70;;
48751;SDS011;34544;48.836;9.174;2023-04-07T10:28:16;8.52;;;6.07;;
48751;SDS011;34544;48.836;9.174;2023-04-07T10:30:46;5.28;;;4.00;;
48751;SDS011;34544;48.836;9.174;2023-04-07T10:33:12;5.38;;;4.47;;
48751;SDS011;34544;48.836;9.174;2023-04-07T10:38:30;7.03;;;4.50;;
48751;SDS011;34544;48.836;9.174;2023-04-07T10:40:56;5.18;;;4.40;;
48751;SDS011;34544;48.836;9.174;2023-04-07T10:43:35;6.38;;;4.53;;
48751;SDS011;34544;48.836;9.174;2023-04-07T10:46:06;6.45;;;4.03;;
48751;SDS011;34544;48.836;9.174;2023-04-07T10:48:32;5.93;;;3.75;;
48751;SDS011;34544;48.836;9.174;2023-04-07T10:53:29;6.22;;;3.60;;
48751;SDS011;34544;48.836;9.174;2023-04-07T10:55:55;7.55;;;4.57;;
48751;SDS011;34544;48.836;9.174;2023-04-07T10:58:26;5.00;;;3.63;;
48751;SDS011;34544;48.836;9.174;2023-04-07T11:06:05;6.80;;;4.68;;
48751;SDS011;34544;48.836;9.174;2023-04-07T11:08:35;6.18;;;4.68;;
48751;SDS011;34544;48.836;9.174;2023-04-07T11:11:08;6.18;;;4.95;;
48751;SDS011;34544;48.836;9.174;2023-04-07T11:13:45;5.38;;;4.28;;
48751;SDS011;34544;48.836;9.174;2023-04-07T11:16:13;6.47;;;4.68;;
48751;SDS011;34544;48.836;9.174;2023-04-07T11:18:41;7.25;;;5.38;;
48751;SDS011;34544;48.836;9.174;2023-04-07T11:21:08;9.10;;;4.95;;
48751;SDS011;34544;48.836;9.174;2023-04-07T11:23:40;5.55;;;4.35;;
48751;SDS011;34544;48.836;9.174;2023-04-07T11:26:08;6.85;;;5.00;;
48751;SDS011;34544;48.836;9.174;2023-04-07T11:28:36;7.75;;;5.07;;
48751;SDS011;34544;48.836;9.174;2023-04-07T11:31:11;12.90;;;4.63;;
48751;SDS011;34544;48.836;9.174;2023-04-07T11:33:36;6.40;;;5.05;;
48751;SDS011;34544;48.836;9.174;2023-04-07T11:36:05;6.30;;;4.85;;
48751;SDS011;34544;48.836;9.174;2023-04-07T11:38:35;7.65;;;5.00;;
48751;SDS011;34544;48.836;9.174;2023-04-07T11:41:09;6.97;;;5.68;;
48751;SDS011;34544;48.836;9.174;2023-04-07T11:43:36;6.38;;;5.22;;
48751;SDS011;34544;48.836;9.174;2023-04-07T11:46:03;6.72;;;5.70;;
48751;SDS011;34544;48.836;9.174;2023-04-07T11:48:34;7.97;;;5.07;;
48751;SDS011;34544;48.836;9.174;2023-04-07T11:51:01;6.40;;;5.47;;
48751;SDS011;34544;48.836;9.174;2023-04-07T11:53:28;8.02;;;5.25;;
48751;SDS011;34544;48.836;9.174;2023-04-07T11:56:00;7.47;;;5.03;;
48751;SDS011;34544;48.836;9.174;2023-04-07T11:58:30;8.25;;;4.63;;
48751;SDS011;34544;48.836;9.174;2023-04-07T12:00:57;6.50;;;3.65;;
48751;SDS011;34544;48.836;9.174;2023-04-07T12:03:27;5.45;;;4.22;;
48751;SDS011;34544;48.836;9.174;2023-04-07T12:05:53;4.90;;;4.38;;
48751;SDS011;34544;48.836;9.174;2023-04-07T12:08:19;6.03;;;4.40;;
48751;SDS011;34544;48.836;9.174;2023-04-07T12:10:45;11.82;;;4.55;;
48751;SDS011;34544;48.836;9.174;2023-04-07T12:13:12;7.35;;;4.07;;
48751;SDS011;34544;48.836;9.174;2023-04-07T12:15:38;6.38;;;4.95;;
48751;SDS011;34544;48.836;9.174;2023-04-07T12:18:04;8.18;;;4.28;;
48751;SDS011;34544;48.836;9.174;2023-04-07T12:20:30;4.57;;;4.00;;
48751;SDS011;34544;48.836;9.174;2023-04-07T12:22:56;6.90;;;4.05;;
48751;SDS011;34544;48.836;9.174;2023-04-07T12:25:24;4.05;;;3.22;;
48751;SDS011;34544;48.836;9.174;2023-04-07T12:27:50;3.25;;;2.80;;
48751;SDS011;34544;48.836;9.174;2023-04-07T12:30:16;5.47;;;3.00;;
48751;SDS011;34544;48.836;9.174;2023-04-07T12:32:41;5.38;;;2.55;;
48751;SDS011;34544;48.836;9.174;2023-04-07T12:35:07;4.88;;;3.60;;
48751;SDS011;34544;48.836;9.174;2023-04-07T12:37:33;5.85;;;3.35;;
48751;SDS011;34544;48.836;9.174;2023-04-07T12:39:58;6.22;;;3.80;;
48751;SDS011;34544;48.836;9.174;2023-04-07T12:42:24;6.28;;;3.33;;
48751;SDS011;34544;48.836;9.174;2023-04-07T12:44:50;6.72;;;3.83;;
48751;SDS011;34544;48.836;9.174;2023-04-07T12:47:15;6.50;;;3.40;;
48751;SDS011;34544;48.836;9.174;2023-04-07T12:49:42;4.32;;;2.78;;
48751;SDS011;34544;48.836;9.174;2023-04-07T12:52:07;2.55;;;2.20;;
48751;SDS011;34544;48.836;9.174;2023-04-07T12:54:33;4.70;;;2.10;;
48751;SDS011;34544;48.836;9.174;2023-04-07T12:56:59;3.15;;;2.17;;
48751;SDS011;34544;48.836;9.174;2023-04-07T12:59:25;2.75;;;1.80;;
48751;SDS011;34544;48.836;9.174;2023-04-07T13:01:50;4.80;;;1.95;;
48751;SDS011;34544;48.836;9.174;2023-04-07T13:04:17;4.15;;;2.15;;
48751;SDS011;34544;48.836;9.174;2023-04-07T13:06:43;8.18;;;3.75;;
48751;SDS011;34544;48.836;9.174;2023-04-07T13:09:09;6.93;;;3.45;;
48751;SDS011;34544;48.836;9.174;2023-04-07T13:11:34;5.78;;;3.92;;
48751;SDS011;34544;48.836;9.174;2023-04-07T13:14:00;5.15;;;2.95;;
48751;SDS011;34544;48.836;9.174;2023-04-07T13:16:26;5.05;;;3.13;;
48751;SDS011;34544;48.836;9.174;2023-04-07T13:18:52;5.90;;;2.92;;
48751;SDS011;34544;48.836;9.174;2023-04-07T13:21:17;4.22;;;2.13;;
48751;SDS011;34544;48.836;9.174;2023-04-07T13:23:43;5.13;;;2.97;;
48751;SDS011;34544;48.836;9.174;2023-04-07T13:26:09;3.63;;;2.67;;
48751;SDS011;34544;48.836;9.174;2023-04-07T13:28:35;7.35;;;3.30;;
48751;SDS011;34544;48.836;9.174;2023-04-07T13:31:00;6.45;;;2.78;;
48751;SDS011;34544;48.836;9.174;2023-04-07T13:33:26;3.47;;;3.17;;
48751;SDS011;34544;48.836;9.174;2023-04-07T13:35:52;6.10;;;3.05;;
48751;SDS011;34544;48.836;9.174;2023-04-07T13:38:18;5.90;;;3.50;;
48751;SDS011;34544;48.836;9.174;2023-04-07T13:40:44;6.95;;;3.17;;
48751;SDS011;34544;48.836;9.174;2023-04-07T13:43:13;3.25;;;2.92;;
48751;SDS011;34544;48.836;9.174;2023-04-07T13:45:39;5.82;;;3.25;;
48751;SDS011;34544;48.836;9.174;2023-04-07T13:48:05;5.90;;;3.90;;
48751;SDS011;34544;48.836;9.174;2023-04-07T13:50:31;7.60;;;3.25;;
48751;SDS011;34544;48.836;9.174;2023-04-07T13:52:59;7.65;;;4.00;;
48751;SDS011;34544;48.836;9.174;2023-04-07T13:55:25;9.95;;;4.00;;
48751;SDS011;34544;48.836;9.174;2023-04-07T13:57:52;4.45;;;3.20;;
48751;SDS011;34544;48.836;9.174;2023-04-07T14:00:18;5.40;;;2.80;;
48751;SDS011;34544;48.836;9.174;2023-04-07T14:02:44;10.93;;;3.85;;
48751;SDS011;34544;48.836;9.174;2023-04-07T14:05:11;7.05;;;5.22;;
48751;SDS011;34544;48.836;9.174;2023-04-07T14:07:37;6.75;;;3.97;;
48751;SDS011;34544;48.836;9.174;2023-04-07T14:10:03;5.78;;;3.08;;
48751;SDS011;34544;48.836;9.174;2023-04-07T14:12:29;5.80;;;3.78;;
48751;SDS011;34544;48.836;9.174;2023-04-07T14:14:55;7.10;;;3.22;;
48751;SDS011;34544;48.836;9.174;2023-04-07T14:17:21;7.70;;;3.03;;
48751;SDS011;34544;48.836;9.174;2023-04-07T14:19:47;5.75;;;3.65;;
48751;SDS011;34544;48.836;9.174;2023-04-07T14:22:13;4.30;;;3.20;;
48751;SDS011;34544;48.836;9.174;2023-04-07T14:24:39;5.47;;;3.50;;
48751;SDS011;34544;48.836;9.174;2023-04-07T14:27:05;7.15;;;4.10;;
48751;SDS011;34544;48.836;9.174;2023-04-07T14:29:30;4.32;;;3.78;;
48751;SDS011;34544;48.836;9.174;2023-04-07T14:31:56;4.82;;;2.97;;
48751;SDS011;34544;48.836;9.174;2023-04-07T14:34:22;5.55;;;4.05;;
48751;SDS011;34544;48.836;9.174;2023-04-07T14:36:54;5.10;;;3.72;;
48751;SDS011;34544;48.836;9.174;2023-04-07T14:39:24;6.03;;;3.83;;
48751;SDS011;34544;48.836;9.174;2023-04-07T14:41:50;6.20;;;3.03;;
48751;SDS011;34544;48.836;9.174;2023-04-07T14:44:17;5.57;;;3.30;;
48751;SDS011;34544;48.836;9.174;2023-04-07T14:46:43;5.15;;;3.55;;
48751;SDS011;34544;48.836;9.174;2023-04-07T14:49:09;4.03;;;3.20;;
48751;SDS011;34544;48.836;9.174;2023-04-07T14:51:35;6.07;;;3.17;;
48751;SDS011;34544;48.836;9.174;2023-04-07T14:54:00;7.15;;;4.18;;
48751;SDS011;34544;48.836;9.174;2023-04-07T14:56:27;7.18;;;3.70;;
48751;SDS011;34544;48.836;9.174;2023-04-07T14:58:52;7.07;;;3.47;;
48751;SDS011;34544;48.836;9.174;2023-04-07T15:01:18;5.45;;;3.28;;
48751;SDS011;34544;48.836;9.174;2023-04-07T15:03:44;5.05;;;3.88;;